ARC Gloria — 5KMT — position and weather

sailwx.info

Track history (hours):
 
Tides and Currents Weather Stations Pressure Air Temp Water Temp Dewpoint Dewpoint Depression Visibility Wind Speed Wind Dir Waves Ship Positions

ARC Gloria (Colombia)

Three-masted barque. Training ship of the Colombian National Armada.

Ship's website: http://www.armada.mil.co/

Last reported at 2019-Sep-09 20:49 UTC. Time now 2019-Sep-20 20:49 UTC.
Position N 35°57' W 009°17'.
Warning: this ship's position is 11 days out of date.

Length 76 m; draft 4.6 m.

Type: Sailing vessel. MMSI: 730010001.

Date/timePositionNaut miles runAvg speedWind from/ knotsBaromVisibWave heightAir tempDewpointWater temp
2019-Sep-09 20:49N 35°57' W 009°17'2 6.8
2019-Sep-09 20:30N 35°59' W 009°18'3 7.0
2019-Sep-09 20:01N 36°02' W 009°20'3 6.4
2019-Sep-09 19:30N 36°05' W 009°22'5 6.4
2019-Sep-09 18:46N 36°09' W 009°25'28 7.3
2019-Sep-09 14:57N 36°31' W 009°46'19 6.8
2019-Sep-09 12:07N 36°44' W 010°03'32 6.2
2019-Sep-09 07:02N 37°10' W 010°25'3 5.1
2019-Sep-09 06:22N 37°14' W 010°26'2 4.8
2019-Sep-09 06:00N 37°15' W 010°26'3 5.6
2019-Sep-09 05:30N 37°18' W 010°27'3 6.3
2019-Sep-09 05:01N 37°21' W 010°28'3 6.8
2019-Sep-09 04:31N 37°25' W 010°28'4 7.1
2019-Sep-09 04:01N 37°28' W 010°29'3 6.4
2019-Sep-09 03:29N 37°31' W 010°30'3 5.6
2019-Sep-09 02:57N 37°34' W 010°31'5 5.7
2019-Sep-09 01:59N 37°40' W 010°31'3 5.5
2019-Sep-09 01:31N 37°42' W 010°31'4 5.6
2019-Sep-09 00:52N 37°46' W 010°30'2 5.2
2019-Sep-09 00:30N 37°48' W 010°30'2 4.9
2019-Sep-09 00:00N 37°50' W 010°30'3 5.2
2019-Sep-08 23:31N 37°53' W 010°29'6 5.3
2019-Sep-08 22:24N 37°59' W 010°29'2 5.2
2019-Sep-08 22:00N 38°01' W 010°28'3 4.8
2019-Sep-08 21:25N 38°04' W 010°28'2 4.4
2019-Sep-08 20:55N 38°06' W 010°28'2 4.6
2019-Sep-08 20:29N 38°08' W 010°28'2 4.4
2019-Sep-08 19:58N 38°10' W 010°29'2 4.3
2019-Sep-08 19:25N 38°12' W 010°29'2 4.2
2019-Sep-08 19:00N 38°14' W 010°29'3 3.9
2019-Sep-08 18:20N 38°17' W 010°29'1 3.5
2019-Sep-08 18:01N 38°18' W 010°28'2 3.9
2019-Sep-08 17:30N 38°20' W 010°29'2 3.7
2019-Sep-08 17:00N 38°22' W 010°29'3 3.9
2019-Sep-08 16:15N 38°25' W 010°28'12 3.0
2019-Sep-08 12:22N 38°36' W 010°31'2 3.1
2019-Sep-08 11:52N 38°38' W 010°31'1 3.2
2019-Sep-08 11:29N 38°39' W 010°32'4 3.7
2019-Sep-08 10:26N 38°43' W 010°33'  
2019-Sep-02 20:48N 53°33' W 003°29'2 7.7
2019-Sep-02 20:30N 53°33' W 003°25'4 7.8
2019-Sep-02 20:00N 53°32' W 003°18'3 5.1
2019-Sep-02 19:30N 53°31' W 003°14'4 7.5
2019-Sep-02 19:00N 53°32' W 003°08'510.0
2019-Sep-02 18:30N 53°28' W 003°03'4 7.5
2019-Sep-02 18:00N 53°24' W 003°00'0 0.0
2019-Sep-02 17:30N 53°24' W 003°00'0 0.0
2019-Sep-02 17:00N 53°25' W 003°00'0 0.0
2019-Sep-02 16:30N 53°25' W 003°00'0 0.0
2019-Sep-02 16:00N 53°24' W 003°00'0 0.0
2019-Sep-02 15:30N 53°24' W 003°00'0 0.0
2019-Sep-02 15:00N 53°24' W 003°00'  
Track history (hours):
 
Tides and Currents Weather Stations Pressure Air Temp Water Temp Dewpoint Dewpoint Depression Visibility Wind Speed Wind Dir Waves Ship Positions

ARC Gloria (Colombia)

Three-masted barque. Training ship of the Colombian National Armada.

Ship's website: http://www.armada.mil.co/

Last reported at 2019-Sep-09 20:49 UTC. Time now 2019-Sep-20 20:49 UTC.
Position N 35°57' W 009°17'.
Warning: this ship's position is 11 days out of date.

Length 76 m; draft 4.6 m.

Type: Sailing vessel. MMSI: 730010001.

Date/timePositionNaut miles runAvg speedWind from/ knotsBaromVisibWave heightAir tempDewpointWater temp
2019-Sep-09 20:49N 35°57' W 009°17'2 6.8
2019-Sep-09 20:30N 35°59' W 009°18'3 7.0
2019-Sep-09 20:01N 36°02' W 009°20'3 6.4
2019-Sep-09 19:30N 36°05' W 009°22'5 6.4
2019-Sep-09 18:46N 36°09' W 009°25'28 7.3
2019-Sep-09 14:57N 36°31' W 009°46'19 6.8
2019-Sep-09 12:07N 36°44' W 010°03'32 6.2
2019-Sep-09 07:02N 37°10' W 010°25'3 5.1
2019-Sep-09 06:22N 37°14' W 010°26'2 4.8
2019-Sep-09 06:00N 37°15' W 010°26'3 5.6
2019-Sep-09 05:30N 37°18' W 010°27'3 6.3
2019-Sep-09 05:01N 37°21' W 010°28'3 6.8
2019-Sep-09 04:31N 37°25' W 010°28'4 7.1
2019-Sep-09 04:01N 37°28' W 010°29'3 6.4
2019-Sep-09 03:29N 37°31' W 010°30'3 5.6
2019-Sep-09 02:57N 37°34' W 010°31'5 5.7
2019-Sep-09 01:59N 37°40' W 010°31'3 5.5
2019-Sep-09 01:31N 37°42' W 010°31'4 5.6
2019-Sep-09 00:52N 37°46' W 010°30'2 5.2
2019-Sep-09 00:30N 37°48' W 010°30'2 4.9
2019-Sep-09 00:00N 37°50' W 010°30'3 5.2
2019-Sep-08 23:31N 37°53' W 010°29'6 5.3
2019-Sep-08 22:24N 37°59' W 010°29'2 5.2
2019-Sep-08 22:00N 38°01' W 010°28'3 4.8
2019-Sep-08 21:25N 38°04' W 010°28'2 4.4
2019-Sep-08 20:55N 38°06' W 010°28'2 4.6
2019-Sep-08 20:29N 38°08' W 010°28'2 4.4
2019-Sep-08 19:58N 38°10' W 010°29'2 4.3
2019-Sep-08 19:25N 38°12' W 010°29'2 4.2
2019-Sep-08 19:00N 38°14' W 010°29'3 3.9
2019-Sep-08 18:20N 38°17' W 010°29'1 3.5
2019-Sep-08 18:01N 38°18' W 010°28'2 3.9
2019-Sep-08 17:30N 38°20' W 010°29'2 3.7
2019-Sep-08 17:00N 38°22' W 010°29'3 3.9
2019-Sep-08 16:15N 38°25' W 010°28'12 3.0
2019-Sep-08 12:22N 38°36' W 010°31'2 3.1
2019-Sep-08 11:52N 38°38' W 010°31'1 3.2
2019-Sep-08 11:29N 38°39' W 010°32'4 3.7
2019-Sep-08 10:26N 38°43' W 010°33'  
2019-Sep-02 20:48N 53°33' W 003°29'2 7.7
2019-Sep-02 20:30N 53°33' W 003°25'4 7.8
2019-Sep-02 20:00N 53°32' W 003°18'3 5.1
2019-Sep-02 19:30N 53°31' W 003°14'4 7.5
2019-Sep-02 19:00N 53°32' W 003°08'510.0
2019-Sep-02 18:30N 53°28' W 003°03'4 7.5
2019-Sep-02 18:00N 53°24' W 003°00'0 0.0
2019-Sep-02 17:30N 53°24' W 003°00'0 0.0
2019-Sep-02 17:00N 53°25' W 003°00'0 0.0
2019-Sep-02 16:30N 53°25' W 003°00'0 0.0
2019-Sep-02 16:00N 53°24' W 003°00'0 0.0
2019-Sep-02 15:30N 53°24' W 003°00'0 0.0
2019-Sep-02 15:00N 53°24' W 003°00'  

Dump ship's entire track history